Time;durP1;ratioP1;P1;durP2;ratioP2;P2;SDS_P1;SDS_P2;PMS_P1;PMS_P2;Temp;Humidity;BMP_temperature;BMP_pressure;BME280_temperature;BME280_humidity;BME280_pressure;Samples;Min_cycle;Max_cycle;Signal;HPM_P1;HPM_P2
2021/08/27 07:02:52;;;;;;;5.85;1.70;;;;;;;25.07;42.25;101947.41;5093291;28;20404;-41
2021/08/27 07:05:18;;;;;;;5.28;1.40;;;;;;;24.73;43.19;101949.34;5100816;28;20040;-41
2021/08/27 07:07:43;;;;;;;8.80;1.67;;;;;;;24.65;43.44;101953.34;5095219;28;20048;-41
2021/08/27 07:10:09;;;;;;;6.95;1.50;;;;;;;24.30;44.31;101957.13;5089072;28;20036;-41
2021/08/27 07:12:34;;;;;;;3.40;1.45;;;;;;;24.00;44.89;101951.84;5089772;28;20111;-41
2021/08/27 07:14:59;;;;;;;10.18;1.50;;;;;;;24.43;43.82;101960.63;5089482;28;20492;-41
2021/08/27 07:17:25;;;;;;;8.82;1.80;;;;;;;24.70;42.62;101961.69;5089381;28;20071;-41
2021/08/27 07:19:50;;;;;;;5.38;1.58;;;;;;;24.82;43.17;101958.03;5089272;28;20028;-41
2021/08/27 07:22:16;;;;;;;3.97;1.40;;;;;;;25.38;40.97;101968.03;5089376;28;20024;-41
2021/08/27 07:24:41;;;;;;;5.45;1.40;;;;;;;25.70;40.91;101963.72;5089059;28;20067;-41
2021/08/27 07:27:09;;;;;;;5.85;1.15;;;;;;;24.95;41.96;101952.19;5089257;28;20032;-41
2021/08/27 07:29:35;;;;;;;7.65;1.50;;;;;;;23.58;44.42;101959.47;5089493;28;20042;-46
2021/08/27 07:32:00;;;;;;;6.40;1.50;;;;;;;23.49;45.62;101956.28;5089009;28;20032;-42
2021/08/27 07:34:26;;;;;;;7.05;1.63;;;;;;;24.25;44.27;101965.28;5089564;28;20078;-40
2021/08/27 07:36:51;;;;;;;9.93;1.58;;;;;;;24.28;43.67;101959.28;5088274;28;20442;-42
2021/08/27 07:39:16;;;;;;;6.05;1.30;;;;;;;24.91;42.75;101954.59;5088573;28;20424;-41
2021/08/27 07:41:42;;;;;;;8.23;2.15;;;;;;;25.76;39.87;101965.47;5088814;28;20520;-41
2021/08/27 07:44:07;;;;;;;6.53;1.65;;;;;;;26.06;39.99;101976.88;5088214;28;20028;-42
2021/08/27 07:46:33;;;;;;;4.18;1.40;;;;;;;26.77;38.33;101966.84;5088303;28;20028;-41
2021/08/27 07:48:58;;;;;;;5.90;1.60;;;;;;;25.91;39.64;101979.50;5088646;28;20024;-39
2021/08/27 07:51:23;;;;;;;3.30;1.35;;;;;;;24.72;41.96;101977.94;5085687;28;20073;-40
2021/08/27 07:53:48;;;;;;;4.30;1.60;;;;;;;24.96;41.21;101970.34;5077148;28;20025;-40
2021/08/27 07:56:14;;;;;;;6.55;1.55;;;;;;;25.19;41.74;101974.88;5084058;28;20111;-40
2021/08/27 07:58:39;;;;;;;4.63;1.48;;;;;;;26.05;40.20;101975.22;5088643;28;20048;-41
2021/08/27 08:01:04;;;;;;;7.05;1.80;;;;;;;26.09;40.29;101978.28;5088915;28;20072;-40
2021/08/27 08:03:30;;;;;;;4.50;1.30;;;;;;;25.61;39.67;101975.19;5088580;28;20024;-41
2021/08/27 08:05:55;;;;;;;7.30;1.80;;;;;;;26.14;39.48;101983.03;5080028;28;20025;-41
2021/08/27 08:08:20;;;;;;;4.38;1.58;;;;;;;26.91;38.21;101973.59;5068166;28;20052;-41
2021/08/27 08:10:46;;;;;;;8.70;1.70;;;;;;;27.44;37.29;101982.84;5068095;28;20040;-41
2021/08/27 08:13:11;;;;;;;7.53;2.08;;;;;;;26.71;38.23;101979.78;5060649;28;20021;-41
2021/08/27 08:15:36;;;;;;;5.18;1.67;;;;;;;26.40;38.43;101976.69;5054806;28;20029;-41
2021/08/27 08:18:03;;;;;;;4.68;1.77;;;;;;;25.86;38.18;101984.94;5054965;28;20036;-41
2021/08/27 08:20:28;;;;;;;6.35;2.28;;;;;;;26.17;38.95;101993.56;5054864;28;20024;-42
2021/08/27 08:22:54;;;;;;;8.20;2.00;;;;;;;25.63;39.48;101978.53;5054633;28;20401;-41
2021/08/27 08:25:19;;;;;;;5.65;2.08;;;;;;;25.69;40.14;101984.13;5059059;28;20067;-41
2021/08/27 08:27:44;;;;;;;6.35;2.10;;;;;;;25.68;39.92;101993.50;5062705;28;20101;-40
2021/08/27 08:30:11;;;;;;;9.43;2.13;;;;;;;25.26;41.04;101991.25;5074473;28;20078;-40
2021/08/27 08:32:36;;;;;;;5.70;2.17;;;;;;;25.46;41.53;101987.94;5074638;28;20460;-41
2021/08/27 08:35:03;;;;;;;5.80;2.20;;;;;;;25.73;41.16;101986.13;5072400;28;20150;-42
2021/08/27 08:37:28;;;;;;;8.60;2.67;;;;;;;25.81;39.54;101987.59;5067344;28;20046;-41
2021/08/27 08:39:54;;;;;;;7.25;2.42;;;;;;;25.01;41.94;101989.72;5074348;28;20470;-42
2021/08/27 08:42:20;;;;;;;11.07;3.17;;;;;;;24.51;42.10;101996.03;5074173;28;20409;-41
2021/08/27 08:44:46;;;;;;;9.20;2.53;;;;;;;23.65;44.87;101993.16;5055192;28;20024;-42
2021/08/27 08:47:11;;;;;;;5.93;1.92;;;;;;;23.55;45.03;101992.94;5068068;28;20396;-41
2021/08/27 08:49:37;;;;;;;8.07;2.05;;;;;;;23.97;44.13;101990.00;5074403;28;20090;-42
2021/08/27 08:52:03;;;;;;;7.57;2.53;;;;;;;24.22;43.44;101986.91;5074222;28;20024;-42
2021/08/27 08:54:30;;;;;;;7.65;2.08;;;;;;;24.35;43.76;101988.53;5058663;28;20037;-42
2021/08/27 08:56:57;;;;;;;7.13;2.38;;;;;;;24.08;44.29;101983.63;5052996;28;20024;-42
2021/08/27 08:59:23;;;;;;;7.57;2.05;;;;;;;23.82;45.60;101994.09;5054288;28;20392;-41
2021/08/27 09:01:48;;;;;;;12.40;2.92;;;;;;;23.91;44.23;101996.47;5062258;28;20048;-40
2021/08/27 09:04:14;;;;;;;8.00;2.45;;;;;;;24.18;44.30;101992.09;5062716;28;20366;-39
2021/08/27 09:06:39;;;;;;;5.47;2.08;;;;;;;25.66;41.78;101995.66;5072581;28;20613;-41
2021/08/27 09:09:05;;;;;;;9.70;2.80;;;;;;;25.73;41.38;101988.88;5072787;28;20035;-41
2021/08/27 09:11:31;;;;;;;10.00;2.72;;;;;;;26.44;40.63;101997.19;5071255;28;20162;-41
2021/08/27 09:13:58;;;;;;;11.63;3.38;;;;;;;25.90;41.14;101991.59;5062535;28;20056;-41
2021/08/27 09:16:26;;;;;;;9.35;2.83;;;;;;;25.92;41.54;101994.94;5073954;28;20028;-41
2021/08/27 09:18:52;;;;;;;7.57;2.40;;;;;;;26.72;38.78;101998.00;5073749;28;20021;-42
2021/08/27 09:21:33;;;;;;;7.13;1.90;;;;;;;27.05;37.49;101993.31;5070056;28;20031;-41
2021/08/27 09:24:19;;;;;;;5.60;1.98;;;;;;;26.25;38.79;102007.75;5062153;28;20036;-40
2021/08/27 09:27:04;;;;;;;7.25;2.50;;;;;;;25.35;40.53;102000.75;5064430;28;20499;-41
2021/08/27 09:29:41;;;;;;;9.80;2.60;;;;;;;25.16;41.87;102000.19;5073594;28;20039;-41
2021/08/27 09:32:25;;;;;;;10.30;2.35;;;;;;;25.96;40.65;102000.75;5073766;28;20033;-41
2021/08/27 09:35:15;;;;;;;10.32;2.38;;;;;;;26.61;38.18;101994.31;5060485;28;20365;-41
2021/08/27 09:37:48;;;;;;;6.57;2.22;;;;;;;26.02;39.33;102005.28;5053519;28;20020;-40
2021/08/27 09:40:17;;;;;;;6.30;2.00;;;;;;;26.03;38.92;101998.66;5071406;28;20044;-41
2021/08/27 09:42:46;;;;;;;6.38;2.50;;;;;;;26.19;39.53;101994.13;5073257;28;20394;-41
2021/08/27 09:45:12;;;;;;;10.63;2.22;;;;;;;26.16;38.81;101994.66;5059811;28;20469;-40
2021/08/27 09:47:38;;;;;;;8.05;2.13;;;;;;;25.53;39.65;101997.69;5053795;28;20090;-41
2021/08/27 09:50:21;;;;;;;8.40;2.17;;;;;;;26.02;39.23;101989.53;5073315;28;20051;-41
2021/08/27 09:52:58;;;;;;;8.23;2.08;;;;;;;26.44;38.71;101994.41;5073206;28;20286;-41
2021/08/27 09:55:24;;;;;;;5.18;1.90;;;;;;;26.74;38.95;101995.00;5057199;28;20103;-41
2021/08/27 09:57:50;;;;;;;7.55;2.08;;;;;;;26.24;38.96;101992.25;5055545;28;20056;-41
2021/08/27 10:00:19;;;;;;;6.93;1.77;;;;;;;25.92;40.24;102000.44;5053123;28;20055;-40
2021/08/27 10:02:44;;;;;;;12.88;2.53;;;;;;;25.66;39.64;101990.16;5052009;28;20049;-40
2021/08/27 10:05:10;;;;;;;6.80;2.20;;;;;;;26.36;38.88;101988.53;5053096;28;20021;-41
2021/08/27 10:07:40;;;;;;;5.75;2.10;;;;;;;26.68;37.00;101996.88;5061690;28;20038;-41
2021/08/27 10:10:08;;;;;;;6.07;2.00;;;;;;;26.33;37.11;101992.66;5055745;28;20031;-41
2021/08/27 10:12:35;;;;;;;9.10;2.03;;;;;;;26.21;37.33;101987.28;5063322;28;20036;-41
2021/08/27 10:15:02;;;;;;;7.75;2.00;;;;;;;26.43;37.51;101989.97;5072924;28;20412;-42
2021/08/27 10:17:27;;;;;;;6.90;1.60;;;;;;;26.96;37.24;101984.66;5073091;28;20066;-43
2021/08/27 10:19:53;;;;;;;10.77;2.22;;;;;;;27.05;37.64;101990.56;5071294;28;20561;-42
2021/08/27 10:22:20;;;;;;;7.68;2.20;;;;;;;26.31;39.25;101986.56;5062929;28;20036;-42
2021/08/27 10:24:46;;;;;;;;;;;;;;;26.37;38.99;101979.97;5053210;28;20096;-43
2021/08/27 10:27:14;;;;;;;11.40;2.30;;;;;;;26.10;39.26;101979.16;5052844;28;20395;-42
2021/08/27 10:29:50;;;;;;;13.40;2.17;;;;;;;25.37;40.60;101982.03;5064502;28;20063;-42
2021/08/27 10:32:38;;;;;;;7.18;2.08;;;;;;;24.87;41.58;101988.41;5063677;28;20369;-42
2021/08/27 10:35:03;;;;;;;9.07;2.05;;;;;;;25.04;40.89;101978.22;5055986;28;20056;-40
2021/08/27 10:37:44;;;;;;;7.43;1.75;;;;;;;25.29;41.06;101982.47;5059665;28;20044;-41
2021/08/27 10:40:22;;;;;;;9.85;1.90;;;;;;;25.14;42.15;101981.09;5071951;28;20388;-42
2021/08/27 10:42:50;;;;;;;8.15;2.10;;;;;;;25.01;41.66;101969.63;5071964;28;20435;-41
2021/08/27 10:45:37;;;;;;;8.45;2.30;;;;;;;23.97;43.73;101976.25;5066658;28;20024;-41
2021/08/27 10:48:25;;;;;;;7.53;1.93;;;;;;;23.26;46.36;101973.59;5056996;28;20029;-41
2021/08/27 10:50:53;;;;;;;9.23;2.40;;;;;;;23.30;46.44;101976.69;5056771;28;20029;-41
2021/08/27 10:53:33;;;;;;;10.80;2.00;;;;;;;23.54;43.72;101974.75;5072429;28;20546;-41
2021/08/27 10:56:04;;;;;;;8.65;1.92;;;;;;;23.96;43.82;101964.44;5067794;28;20028;-41
2021/08/27 10:58:52;;;;;;;12.48;2.45;;;;;;;24.20;43.71;101967.94;5065909;28;20527;-41
2021/08/27 11:01:29;;;;;;;7.88;1.88;;;;;;;24.78;42.61;101967.84;5072094;28;20052;-41
2021/08/27 11:04:04;;;;;;;12.57;2.42;;;;;;;24.47;42.43;101981.09;5054429;28;20112;-44
2021/08/27 11:06:43;;;;;;;8.93;2.13;;;;;;;24.28;43.07;101970.28;5071795;28;20437;-41
2021/08/27 11:09:18;;;;;;;6.05;1.77;;;;;;;24.77;42.38;101982.72;5069256;28;20085;-41
2021/08/27 11:11:44;;;;;;;6.72;2.35;;;;;;;24.69;42.16;101970.19;5065929;28;20140;-41
2021/08/27 11:14:20;;;;;;;11.10;2.50;;;;;;;25.89;41.22;101978.91;5051960;28;20484;-42
2021/08/27 11:16:59;;;;;;;11.57;2.78;;;;;;;26.11;40.10;101975.28;5061029;28;20025;-42
2021/08/27 11:19:30;;;;;;;9.13;2.35;;;;;;;26.02;40.15;101984.03;5053069;28;20102;-42
2021/08/27 11:22:16;;;;;;;9.95;2.10;;;;;;;25.58;41.69;101967.44;5051856;28;20033;-42
2021/08/27 11:25:02;;;;;;;11.63;2.30;;;;;;;25.23;41.80;101972.47;5066645;28;20059;-42
2021/08/27 11:27:28;;;;;;;11.93;2.15;;;;;;;25.31;40.83;101978.38;5069924;28;20037;-42
2021/08/27 11:29:53;;;;;;;8.13;2.60;;;;;;;25.78;39.44;101977.09;5070722;28;20384;-42
2021/08/27 11:32:27;;;;;;;8.73;2.65;;;;;;;25.90;41.12;101983.31;5061944;28;20044;-42
2021/08/27 11:35:05;;;;;;;11.85;2.72;;;;;;;26.41;39.64;101980.28;5051808;28;20433;-43
2021/08/27 11:37:31;;;;;;;10.13;2.20;;;;;;;26.49;38.85;101979.84;5069979;28;20036;-41
2021/08/27 11:39:57;;;;;;;10.03;2.10;;;;;;;26.54;38.70;101990.09;5055428;28;20040;-41
2021/08/27 11:42:22;;;;;;;10.57;2.40;;;;;;;25.89;39.89;101978.09;5051464;28;20287;-41
2021/08/27 11:45:05;;;;;;;8.15;2.33;;;;;;;26.11;39.90;101991.84;5053241;28;20384;-41
2021/08/27 11:47:41;;;;;;;11.93;2.30;;;;;;;25.88;40.38;101987.44;5059177;28;20025;-41
2021/08/27 11:50:09;;;;;;;12.60;2.35;;;;;;;26.02;39.46;101983.19;5066429;28;20040;-41
2021/08/27 11:52:35;;;;;;;12.43;2.22;;;;;;;26.14;40.30;101991.31;5056557;28;20025;-41
2021/08/27 11:55:05;;;;;;;15.02;3.30;;;;;;;26.52;39.84;101990.38;5073751;28;20126;-41
2021/08/27 11:57:31;;;;;;;8.43;2.17;;;;;;;27.07;38.65;101993.91;5056623;28;20388;-41
2021/08/27 12:00:11;;;;;;;6.20;2.10;;;;;;;27.46;37.65;101991.69;5068499;28;20045;-42
2021/08/27 12:02:37;;;;;;;11.90;2.20;;;;;;;27.14;39.18;102000.00;5071912;28;20523;-42
2021/08/27 12:05:04;;;;;;;8.48;2.13;;;;;;;27.28;38.32;101994.91;5073321;28;20027;-41
2021/08/27 12:07:30;;;;;;;10.18;2.38;;;;;;;27.03;39.09;101990.00;5066047;28;20067;-42
2021/08/27 12:10:10;;;;;;;10.10;2.58;;;;;;;26.87;39.72;101989.03;5068040;28;20032;-41
2021/08/27 12:12:37;;;;;;;8.10;2.22;;;;;;;27.40;38.82;101994.69;5057923;28;20024;-41
2021/08/27 12:15:04;;;;;;;12.98;2.90;;;;;;;27.30;38.85;101990.75;5055238;28;20045;-41
2021/08/27 12:17:30;;;;;;;10.90;2.70;;;;;;;26.93;39.20;101982.44;5072953;28;20361;-41
2021/08/27 12:19:58;;;;;;;13.88;2.58;;;;;;;26.75;40.10;101986.44;5056503;28;20021;-42
2021/08/27 12:22:29;;;;;;;8.00;2.10;;;;;;;26.61;39.90;101986.03;5058911;28;20029;-41
2021/08/27 12:24:55;;;;;;;11.93;2.70;;;;;;;26.65;40.31;101986.38;5065051;28;20074;-41
2021/08/27 12:27:22;;;;;;;8.55;2.20;;;;;;;25.96;40.81;101987.81;5063218;28;20058;-41
2021/08/27 12:30:07;;;;;;;8.48;2.15;;;;;;;25.77;41.63;101987.25;5074645;28;20024;-41
2021/08/27 12:32:32;;;;;;;10.15;2.40;;;;;;;25.55;42.12;101992.78;5058239;28;20095;-41
2021/08/27 12:34:59;;;;;;;10.27;2.33;;;;;;;25.51;41.98;101983.34;5054322;28;20469;-41
2021/08/27 12:37:24;;;;;;;10.27;2.20;;;;;;;25.78;41.41;101988.13;5057967;28;20028;-40
2021/08/27 12:39:52;;;;;;;8.60;2.38;;;;;;;25.49;41.86;101969.00;5062488;28;20082;-41
2021/08/27 12:42:19;;;;;;;8.57;2.30;;;;;;;25.35;42.96;101978.69;5066909;28;20115;-41
2021/08/27 12:45:04;;;;;;;11.25;2.03;;;;;;;25.40;42.37;101981.53;5054199;28;20028;-41
2021/08/27 12:47:31;;;;;;;6.65;2.08;;;;;;;25.80;41.82;101984.03;5054078;28;20032;-41
2021/08/27 12:49:58;;;;;;;12.50;2.33;;;;;;;25.48;42.51;101972.81;5054403;28;20132;-41
2021/08/27 12:52:23;;;;;;;9.60;2.13;;;;;;;25.53;43.36;101981.16;5054124;28;20107;-41
2021/08/27 12:54:49;;;;;;;8.75;2.20;;;;;;;25.44;42.51;101988.22;5052930;28;20056;-41
2021/08/27 12:57:16;;;;;;;9.13;1.92;;;;;;;25.27;43.39;101984.66;5054202;28;20028;-41
2021/08/27 12:59:57;;;;;;;9.30;2.50;;;;;;;25.35;44.57;101978.69;5052679;28;20021;-41
2021/08/27 13:02:23;;;;;;;13.20;2.60;;;;;;;25.09;43.73;101977.44;5054426;28;20098;-40
2021/08/27 13:04:50;;;;;;;12.88;2.67;;;;;;;24.64;45.28;101983.88;5054008;28;20029;-41
2021/08/27 13:07:31;;;;;;;;;;;;;;;24.56;45.05;101985.09;5059604;28;20033;-42
2021/08/27 13:10:10;;;;;;;10.82;2.53;;;;;;;24.50;45.52;101986.09;5072607;28;20338;-41
2021/08/27 13:12:36;;;;;;;7.57;2.33;;;;;;;24.41;46.04;101979.28;5062030;28;20033;-41
2021/08/27 13:15:03;;;;;;;8.38;2.33;;;;;;;24.62;45.16;101981.38;5066186;28;20028;-41
2021/08/27 13:17:28;;;;;;;12.50;2.88;;;;;;;24.60;44.58;101972.53;5068688;28;20021;-42
2021/08/27 13:20:00;;;;;;;15.27;3.13;;;;;;;24.80;45.31;101987.72;5057901;28;20116;-41
2021/08/27 13:22:29;;;;;;;9.32;2.13;;;;;;;25.34;44.03;101982.56;5068280;28;20021;-41
2021/08/27 13:24:57;;;;;;;8.55;2.25;;;;;;;25.35;44.49;101984.22;5062567;28;20032;-41
2021/08/27 13:27:22;;;;;;;10.98;2.58;;;;;;;25.06;43.78;101980.72;5085898;28;20430;-43
2021/08/27 13:29:48;;;;;;;9.45;2.75;;;;;;;24.53;45.27;101982.84;5057733;28;20021;-42
2021/08/27 13:32:27;;;;;;;7.70;2.10;;;;;;;23.93;46.17;101973.16;5053651;28;20045;-42
2021/08/27 13:34:53;;;;;;;6.47;2.33;;;;;;;23.59;47.57;101967.50;5053323;28;20445;-41
2021/08/27 13:37:19;;;;;;;12.13;2.67;;;;;;;23.70;47.65;101967.69;5051994;28;20036;-41
2021/08/27 13:39:46;;;;;;;12.40;2.42;;;;;;;23.63;47.35;101973.31;5058165;28;20032;-41
2021/08/27 13:42:12;;;;;;;6.57;2.42;;;;;;;23.55;47.95;101970.94;5064555;28;20060;-41
2021/08/27 13:44:37;;;;;;;13.70;2.13;;;;;;;23.48;47.65;101970.25;5059876;28;20066;-41
2021/08/27 13:47:03;;;;;;;10.10;2.30;;;;;;;23.24;48.46;101975.75;5086971;28;20020;-41
2021/08/27 13:49:28;;;;;;;11.07;1.83;;;;;;;22.91;48.10;101960.66;5093388;28;20028;-41
2021/08/27 13:51:53;;;;;;;10.70;2.13;;;;;;;22.77;48.39;101959.22;5069770;28;20056;-41
2021/08/27 13:54:19;;;;;;;8.25;2.08;;;;;;;22.68;48.78;101960.63;5053021;28;20433;-41
2021/08/27 13:56:44;;;;;;;11.98;2.30;;;;;;;22.75;49.60;101953.16;5053118;28;20555;-40
2021/08/27 13:59:09;;;;;;;8.65;1.85;;;;;;;23.10;47.77;101963.34;5052906;28;20017;-41
2021/08/27 14:01:35;;;;;;;8.57;1.85;;;;;;;23.18;47.47;101957.50;5056146;28;20072;-40
2021/08/27 14:04:00;;;;;;;7.25;1.80;;;;;;;23.31;48.01;101949.00;5065099;28;20393;-41
2021/08/27 14:06:26;;;;;;;5.97;2.00;;;;;;;23.00;50.81;101951.03;5062510;28;20170;-42
2021/08/27 14:08:51;;;;;;;9.63;1.83;;;;;;;22.49;53.47;101971.69;5070657;28;20049;-41
2021/08/27 14:11:16;;;;;;;9.50;1.88;;;;;;;21.81;51.92;101967.31;5070627;28;20036;-41
2021/08/27 14:13:42;;;;;;;7.05;1.83;;;;;;;21.43;50.96;101962.03;5054897;28;20155;-41
2021/08/27 14:16:07;;;;;;;7.75;1.70;;;;;;;21.32;50.61;101965.50;5055192;28;20029;-40
2021/08/27 14:18:34;;;;;;;11.48;2.42;;;;;;;21.14;51.42;101958.94;5053736;28;20029;-40
2021/08/27 14:20:59;;;;;;;9.57;1.80;;;;;;;21.45;51.60;101951.69;5053154;28;20057;-39
2021/08/27 14:23:25;;;;;;;9.80;2.00;;;;;;;22.09;49.99;101954.91;5053610;28;20076;-40
2021/08/27 14:25:50;;;;;;;8.02;1.90;;;;;;;22.67;49.32;101959.81;5052941;28;20021;-41
2021/08/27 14:28:16;;;;;;;7.38;1.95;;;;;;;22.84;49.41;101954.44;5052774;28;20028;-41
2021/08/27 14:30:41;;;;;;;8.65;2.35;;;;;;;23.00;49.75;101953.78;5051345;28;20071;-40
2021/08/27 14:33:07;;;;;;;9.10;2.15;;;;;;;22.71;48.71;101952.75;5052484;28;20439;-41
2021/08/27 14:35:33;;;;;;;4.05;1.75;;;;;;;22.58;48.83;101945.56;5052589;28;20025;-42
2021/08/27 14:37:58;;;;;;;11.68;2.10;;;;;;;23.25;47.70;101958.22;5052755;28;20447;-40
2021/08/27 14:40:24;;;;;;;10.23;2.15;;;;;;;23.52;47.31;101960.44;5052556;28;20033;-40
2021/08/27 14:42:50;;;;;;;7.30;1.60;;;;;;;23.66;46.83;101953.59;5052311;28;20086;-41
2021/08/27 14:45:16;;;;;;;8.52;1.92;;;;;;;23.34;47.49;101965.00;5052500;28;20421;-40
2021/08/27 14:47:42;;;;;;;10.45;2.20;;;;;;;22.63;49.13;101957.75;5052279;28;20056;-40
2021/08/27 14:50:08;;;;;;;8.00;2.05;;;;;;;22.11;49.94;101961.84;5051811;28;20053;-40
2021/08/27 14:52:34;;;;;;;6.80;2.08;;;;;;;21.64;51.22;101964.34;5063089;28;20051;-40
2021/08/27 14:54:59;;;;;;;16.13;2.92;;;;;;;21.50;52.53;101962.81;5052186;28;20429;-41
2021/08/27 14:57:28;;;;;;;13.68;2.55;;;;;;;21.38;52.31;101956.41;5067192;28;20078;-41
2021/08/27 14:59:54;;;;;;;7.88;2.20;;;;;;;21.36;52.35;101961.25;5092303;28;20395;-40
2021/08/27 15:02:19;;;;;;;9.98;2.25;;;;;;;21.53;51.93;101953.31;5090800;28;20048;-41
2021/08/27 15:04:44;;;;;;;11.70;2.17;;;;;;;21.53;51.54;101954.13;5092239;28;20093;-40
2021/08/27 15:07:10;;;;;;;11.27;2.72;;;;;;;21.52;51.24;101952.47;5092294;28;20039;-41
2021/08/27 15:09:36;;;;;;;12.27;2.88;;;;;;;21.64;51.10;101952.53;5075659;28;20098;-41
2021/08/27 15:12:02;;;;;;;12.82;2.67;;;;;;;21.63;49.94;101954.44;5072206;28;20028;-42
2021/08/27 15:14:28;;;;;;;4.78;1.92;;;;;;;21.75;49.39;101956.41;5084787;28;20111;-41
2021/08/27 15:16:54;;;;;;;10.90;2.33;;;;;;;21.53;50.63;101954.13;5092310;28;20024;-41
2021/08/27 15:19:20;;;;;;;11.25;2.17;;;;;;;21.33;51.40;101962.56;5081888;28;20033;-40
2021/08/27 15:21:45;;;;;;;8.77;2.05;;;;;;;21.37;51.71;101949.22;5071904;28;20352;-41
2021/08/27 15:24:10;;;;;;;8.30;2.20;;;;;;;21.35;52.11;101956.84;5075166;28;20103;-41
2021/08/27 15:26:36;;;;;;;11.70;2.35;;;;;;;21.28;52.01;101965.13;5076056;28;20070;-41
2021/08/27 15:29:01;;;;;;;10.07;2.53;;;;;;;20.97;52.92;101966.06;5075998;28;20111;-41
2021/08/27 15:31:26;;;;;;;10.07;2.05;;;;;;;20.79;52.55;101962.19;5075772;28;20120;-40
2021/08/27 15:33:51;;;;;;;9.23;2.42;;;;;;;20.74;52.51;101961.19;5075778;28;20032;-41
2021/08/27 15:36:17;;;;;;;8.60;2.10;;;;;;;20.57;53.19;101961.72;5075941;28;20028;-41
2021/08/27 15:38:42;;;;;;;12.98;2.58;;;;;;;20.54;52.89;101958.63;5075768;28;20028;-41
2021/08/27 15:41:09;;;;;;;9.48;2.30;;;;;;;20.71;53.11;101956.16;5078004;28;20464;-41
2021/08/27 15:43:34;;;;;;;8.52;2.15;;;;;;;20.74;52.86;101956.53;5055953;28;20120;-40
2021/08/27 15:45:59;;;;;;;10.48;2.15;;;;;;;20.87;52.08;101960.25;5055523;28;20060;-40
2021/08/27 15:48:25;;;;;;;13.60;2.28;;;;;;;20.89;52.66;101958.97;5064273;28;20421;-41
2021/08/27 15:50:51;;;;;;;7.80;2.45;;;;;;;21.12;52.43;101952.88;5074094;28;20078;-41
2021/08/27 15:53:16;;;;;;;8.85;2.30;;;;;;;21.16;52.71;101959.53;5069624;28;20047;-41
2021/08/27 15:55:43;;;;;;;10.73;1.92;;;;;;;21.15;52.33;101957.88;5054238;28;20040;-41
2021/08/27 15:58:08;;;;;;;4.50;1.60;;;;;;;20.99;52.09;101959.28;5075131;28;20016;-42
2021/08/27 16:00:34;;;;;;;9.13;2.13;;;;;;;20.97;52.61;101966.88;5083360;28;20012;-42
2021/08/27 16:02:59;;;;;;;10.27;2.05;;;;;;;20.83;53.04;101971.63;5079121;28;20044;-39
2021/08/27 16:05:25;;;;;;;9.10;2.35;;;;;;;20.52;53.77;101967.00;5075045;28;20017;-41
2021/08/27 16:07:50;;;;;;;7.88;2.28;;;;;;;20.30;54.36;101958.31;5075170;28;20396;-40
2021/08/27 16:10:16;;;;;;;11.07;2.58;;;;;;;20.09;54.91;101964.09;5075134;28;20031;-41
2021/08/27 16:12:41;;;;;;;10.25;2.35;;;;;;;20.13;55.20;101957.97;5075196;28;20037;-41
2021/08/27 16:15:08;;;;;;;8.13;2.47;;;;;;;20.24;55.16;101969.28;5075311;28;20087;-41
2021/08/27 16:17:33;;;;;;;9.25;2.50;;;;;;;20.09;57.13;101975.00;5075044;28;20115;-40
2021/08/27 16:19:58;;;;;;;11.23;2.50;;;;;;;19.93;57.47;101970.88;5075029;28;20108;-42
2021/08/27 16:22:25;;;;;;;7.85;1.75;;;;;;;19.63;56.89;101970.56;5074783;28;20035;-41
2021/08/27 16:24:54;;;;;;;4.33;1.73;;;;;;;19.63;56.88;101965.91;5075193;28;20024;-41
2021/08/27 16:27:20;;;;;;;4.72;1.83;;;;;;;19.54;55.70;101967.22;5075040;28;20473;-41
2021/08/27 16:29:45;;;;;;;8.00;1.65;;;;;;;19.51;55.59;101973.94;5073685;28;20031;-40
2021/08/27 16:32:10;;;;;;;9.75;2.05;;;;;;;19.39;56.26;101963.91;5065849;28;20382;-41
2021/08/27 16:34:36;;;;;;;8.48;2.17;;;;;;;19.39;56.88;101972.09;5071830;28;20087;-40
2021/08/27 16:37:01;;;;;;;7.40;2.30;;;;;;;19.22;57.74;101974.41;5074157;28;20039;-40
2021/08/27 16:39:26;;;;;;;6.63;2.22;;;;;;;19.15;58.87;101968.13;5068110;28;20040;-40
2021/08/27 16:41:52;;;;;;;9.93;2.00;;;;;;;19.08;59.37;101974.41;5059111;28;20029;-40
2021/08/27 16:44:17;;;;;;;11.02;2.10;;;;;;;19.05;59.47;101969.38;5071659;28;20029;-41
2021/08/27 16:46:42;;;;;;;12.43;2.53;;;;;;;19.05;59.76;101976.75;5070904;28;20107;-40
2021/08/27 16:49:08;;;;;;;18.15;3.00;;;;;;;19.03;60.69;101968.75;5071455;28;20039;-41
2021/08/27 16:51:34;;;;;;;15.98;2.95;;;;;;;19.05;60.53;101965.81;5065156;28;20032;-40
2021/08/27 16:53:59;;;;;;;9.25;2.58;;;;;;;19.11;60.40;101964.97;5067446;28;20615;-41
2021/08/27 16:56:25;;;;;;;8.18;1.95;;;;;;;19.15;59.75;101959.94;5063938;28;20031;-42
2021/08/27 16:58:50;;;;;;;11.35;2.58;;;;;;;19.12;58.64;101968.56;5070473;28;20020;-41
2021/08/27 17:01:15;;;;;;;7.80;2.03;;;;;;;19.12;58.22;101960.38;5072156;28;20102;-41
2021/08/27 17:03:41;;;;;;;8.40;1.88;;;;;;;19.14;58.32;101974.63;5082395;28;20052;-40
2021/08/27 17:06:06;;;;;;;8.15;1.92;;;;;;;19.07;58.50;101967.28;5065013;28;20040;-41
2021/08/27 17:08:32;;;;;;;9.88;2.30;;;;;;;19.05;58.57;101968.56;5068702;28;20031;-41
2021/08/27 17:10:58;;;;;;;7.72;2.10;;;;;;;18.89;58.95;101975.28;5070963;28;20016;-40
2021/08/27 17:13:23;;;;;;;10.13;1.98;;;;;;;18.90;59.31;101974.22;5053409;28;20040;-40
2021/08/27 17:15:49;;;;;;;11.63;2.13;;;;;;;18.80;59.64;101965.59;5057795;28;20055;-41
2021/08/27 17:18:15;;;;;;;9.73;2.08;;;;;;;18.65;59.68;101963.91;5070110;28;20399;-40
2021/08/27 17:20:43;;;;;;;6.38;1.50;;;;;;;18.56;59.69;101959.72;5055102;28;20485;-40
2021/08/27 17:23:08;;;;;;;11.05;1.92;;;;;;;18.51;59.77;101964.09;5064400;28;20032;-40
2021/08/27 17:25:34;;;;;;;8.95;1.83;;;;;;;18.49;60.17;101969.75;5054562;28;20033;-40
2021/08/27 17:27:59;;;;;;;9.15;2.05;;;;;;;18.56;60.17;101956.97;5065545;28;20043;-41
2021/08/27 17:30:24;;;;;;;8.32;2.13;;;;;;;18.45;60.40;101948.56;5069036;28;20025;-41
2021/08/27 17:32:50;;;;;;;13.02;2.03;;;;;;;18.52;59.97;101961.16;5058354;28;20476;-41
2021/08/27 17:35:15;;;;;;;15.60;2.20;;;;;;;18.44;60.33;101964.09;5057334;28;20037;-40
2021/08/27 17:37:41;;;;;;;12.05;2.15;;;;;;;18.39;60.93;101961.97;5069903;28;20037;-41
2021/08/27 17:40:06;;;;;;;9.35;2.08;;;;;;;18.28;61.62;101961.75;5064043;28;20033;-40
2021/08/27 17:42:32;;;;;;;14.38;2.20;;;;;;;18.28;61.88;101972.66;5056053;28;20067;-40
2021/08/27 17:44:57;;;;;;;9.93;2.28;;;;;;;18.44;60.90;101969.53;5050373;28;20461;-40
2021/08/27 17:47:23;;;;;;;8.00;1.95;;;;;;;18.45;60.33;101973.09;5054699;28;20064;-41
2021/08/27 17:49:48;;;;;;;11.82;1.90;;;;;;;18.51;60.35;101961.34;5057063;28;20056;-41
2021/08/27 17:52:13;;;;;;;9.85;2.05;;;;;;;18.41;60.73;101973.50;5065269;28;20155;-40
2021/08/27 17:54:39;;;;;;;8.48;1.73;;;;;;;18.41;60.77;101962.59;5050478;28;20069;-41
2021/08/27 17:57:05;;;;;;;8.13;1.75;;;;;;;18.38;61.35;101964.91;5064199;28;20024;-42
2021/08/27 17:59:30;;;;;;;10.13;2.20;;;;;;;18.37;61.61;101968.66;5066720;28;20062;-40
2021/08/27 18:01:55;;;;;;;6.88;2.13;;;;;;;18.36;61.78;101958.84;5064458;28;20060;-40
2021/08/27 18:04:21;;;;;;;13.13;2.10;;;;;;;18.29;62.05;101964.25;5064518;28;20020;-41
2021/08/27 18:06:46;;;;;;;7.40;1.83;;;;;;;18.30;62.29;101970.53;5052734;28;20029;-41
2021/08/27 18:09:12;;;;;;;10.70;2.45;;;;;;;18.29;62.65;101974.31;5065506;28;20249;-41
2021/08/27 18:11:37;;;;;;;8.13;2.00;;;;;;;18.24;62.77;101974.09;5058426;28;20396;-41
2021/08/27 18:14:02;;;;;;;12.30;2.65;;;;;;;18.20;63.21;101970.94;5066706;28;20051;-41
2021/08/27 18:16:28;;;;;;;9.00;1.83;;;;;;;18.21;62.93;101973.44;5065337;28;20384;-41
2021/08/27 18:18:54;;;;;;;14.18;2.28;;;;;;;18.23;63.11;101975.16;5058723;28;20094;-42
2021/08/27 18:21:19;;;;;;;13.43;2.28;;;;;;;18.21;63.33;101978.91;5049819;28;20040;-41
2021/08/27 18:23:45;;;;;;;12.63;2.47;;;;;;;18.17;66.27;101988.53;5049692;28;20036;-41
2021/08/27 18:26:10;;;;;;;18.30;2.40;;;;;;;18.04;67.18;101974.88;5049710;28;20447;-41